sensor_id;sensor_type;location;lat;lon;timestamp;P1;durP1;ratioP1;P2;durP2;ratioP2
78072;SDS011;67281;48.770;11.440;2023-11-22T00:01:05;3.27;;;2.60;;
78072;SDS011;67281;48.770;11.440;2023-11-22T00:03:33;4.27;;;2.50;;
78072;SDS011;67281;48.770;11.440;2023-11-22T00:06:02;4.53;;;2.83;;
78072;SDS011;67281;48.770;11.440;2023-11-22T00:08:29;6.17;;;3.20;;
78072;SDS011;67281;48.770;11.440;2023-11-22T00:10:57;4.43;;;3.20;;
78072;SDS011;67281;48.770;11.440;2023-11-22T00:13:23;3.97;;;2.73;;
78072;SDS011;67281;48.770;11.440;2023-11-22T00:15:51;5.33;;;3.20;;
78072;SDS011;67281;48.770;11.440;2023-11-22T00:18:18;4.33;;;3.27;;
78072;SDS011;67281;48.770;11.440;2023-11-22T00:20:45;5.50;;;3.10;;
78072;SDS011;67281;48.770;11.440;2023-11-22T00:23:14;5.03;;;3.13;;
78072;SDS011;67281;48.770;11.440;2023-11-22T00:25:41;4.57;;;3.20;;
78072;SDS011;67281;48.770;11.440;2023-11-22T00:28:08;5.40;;;3.30;;
78072;SDS011;67281;48.770;11.440;2023-11-22T00:30:36;4.43;;;3.23;;
78072;SDS011;67281;48.770;11.440;2023-11-22T00:33:03;4.00;;;2.90;;
78072;SDS011;67281;48.770;11.440;2023-11-22T00:35:31;4.20;;;3.13;;
78072;SDS011;67281;48.770;11.440;2023-11-22T00:37:58;4.93;;;3.10;;
78072;SDS011;67281;48.770;11.440;2023-11-22T00:40:25;5.17;;;3.07;;
78072;SDS011;67281;48.770;11.440;2023-11-22T00:42:52;4.83;;;3.50;;
78072;SDS011;67281;48.770;11.440;2023-11-22T00:45:19;4.20;;;3.00;;
78072;SDS011;67281;48.770;11.440;2023-11-22T00:47:46;5.70;;;3.30;;
78072;SDS011;67281;48.770;11.440;2023-11-22T00:50:13;5.10;;;3.40;;
78072;SDS011;67281;48.770;11.440;2023-11-22T00:52:42;4.40;;;2.97;;
78072;SDS011;67281;48.770;11.440;2023-11-22T00:55:11;4.70;;;3.40;;
78072;SDS011;67281;48.770;11.440;2023-11-22T00:57:38;7.70;;;3.30;;
78072;SDS011;67281;48.770;11.440;2023-11-22T01:00:06;6.23;;;3.97;;
78072;SDS011;67281;48.770;11.440;2023-11-22T01:02:37;5.50;;;3.77;;
78072;SDS011;67281;48.770;11.440;2023-11-22T01:05:11;5.40;;;3.83;;
78072;SDS011;67281;48.770;11.440;2023-11-22T01:07:38;4.93;;;3.47;;
78072;SDS011;67281;48.770;11.440;2023-11-22T01:10:05;6.07;;;3.67;;
78072;SDS011;67281;48.770;11.440;2023-11-22T01:12:33;6.87;;;3.87;;
78072;SDS011;67281;48.770;11.440;2023-11-22T01:15:00;5.73;;;4.10;;
78072;SDS011;67281;48.770;11.440;2023-11-22T01:17:27;5.90;;;3.87;;
78072;SDS011;67281;48.770;11.440;2023-11-22T01:19:54;5.67;;;3.70;;
78072;SDS011;67281;48.770;11.440;2023-11-22T01:22:21;4.60;;;3.27;;
78072;SDS011;67281;48.770;11.440;2023-11-22T01:24:48;6.80;;;4.20;;
78072;SDS011;67281;48.770;11.440;2023-11-22T01:27:18;5.57;;;3.53;;
78072;SDS011;67281;48.770;11.440;2023-11-22T01:29:46;5.80;;;3.93;;
78072;SDS011;67281;48.770;11.440;2023-11-22T01:32:13;7.83;;;4.10;;
78072;SDS011;67281;48.770;11.440;2023-11-22T01:34:40;5.53;;;3.57;;
78072;SDS011;67281;48.770;11.440;2023-11-22T01:37:07;5.97;;;4.10;;
78072;SDS011;67281;48.770;11.440;2023-11-22T01:39:34;6.83;;;4.10;;
78072;SDS011;67281;48.770;11.440;2023-11-22T01:42:01;7.10;;;4.03;;
78072;SDS011;67281;48.770;11.440;2023-11-22T01:44:28;6.07;;;4.10;;
78072;SDS011;67281;48.770;11.440;2023-11-22T01:46:55;5.73;;;3.80;;
78072;SDS011;67281;48.770;11.440;2023-11-22T01:49:22;6.57;;;3.93;;
78072;SDS011;67281;48.770;11.440;2023-11-22T01:51:50;5.80;;;3.90;;
78072;SDS011;67281;48.770;11.440;2023-11-22T01:54:17;7.97;;;4.10;;
78072;SDS011;67281;48.770;11.440;2023-11-22T01:56:45;5.17;;;3.53;;
78072;SDS011;67281;48.770;11.440;2023-11-22T01:59:12;6.60;;;4.20;;
78072;SDS011;67281;48.770;11.440;2023-11-22T02:01:40;5.23;;;3.60;;
78072;SDS011;67281;48.770;11.440;2023-11-22T02:04:08;6.33;;;3.53;;
78072;SDS011;67281;48.770;11.440;2023-11-22T02:06:36;4.67;;;3.30;;
78072;SDS011;67281;48.770;11.440;2023-11-22T02:09:03;4.60;;;3.40;;
78072;SDS011;67281;48.770;11.440;2023-11-22T02:11:30;4.80;;;3.20;;
78072;SDS011;67281;48.770;11.440;2023-11-22T02:13:57;5.70;;;2.90;;
78072;SDS011;67281;48.770;11.440;2023-11-22T02:16:24;5.63;;;3.00;;
78072;SDS011;67281;48.770;11.440;2023-11-22T02:18:51;4.37;;;2.90;;
78072;SDS011;67281;48.770;11.440;2023-11-22T02:21:18;4.13;;;3.00;;
78072;SDS011;67281;48.770;11.440;2023-11-22T02:23:45;3.80;;;2.70;;
78072;SDS011;67281;48.770;11.440;2023-11-22T02:26:13;3.77;;;2.80;;
78072;SDS011;67281;48.770;11.440;2023-11-22T02:28:42;3.50;;;2.47;;
78072;SDS011;67281;48.770;11.440;2023-11-22T02:31:09;3.67;;;2.60;;
78072;SDS011;67281;48.770;11.440;2023-11-22T02:33:36;3.73;;;2.73;;
78072;SDS011;67281;48.770;11.440;2023-11-22T02:36:03;5.23;;;2.70;;
78072;SDS011;67281;48.770;11.440;2023-11-22T02:38:30;3.90;;;2.97;;
78072;SDS011;67281;48.770;11.440;2023-11-22T02:40:58;3.40;;;2.70;;
78072;SDS011;67281;48.770;11.440;2023-11-22T02:43:24;5.37;;;3.30;;
78072;SDS011;67281;48.770;11.440;2023-11-22T02:45:52;5.00;;;2.80;;
78072;SDS011;67281;48.770;11.440;2023-11-22T02:48:20;3.73;;;2.83;;
78072;SDS011;67281;48.770;11.440;2023-11-22T02:50:46;3.37;;;2.73;;
78072;SDS011;67281;48.770;11.440;2023-11-22T02:53:13;3.20;;;2.57;;
78072;SDS011;67281;48.770;11.440;2023-11-22T02:55:40;3.33;;;2.50;;
78072;SDS011;67281;48.770;11.440;2023-11-22T02:58:07;3.73;;;2.30;;
78072;SDS011;67281;48.770;11.440;2023-11-22T03:00:34;3.17;;;2.20;;
78072;SDS011;67281;48.770;11.440;2023-11-22T03:03:01;2.97;;;2.30;;
78072;SDS011;67281;48.770;11.440;2023-11-22T03:05:30;3.03;;;2.30;;
78072;SDS011;67281;48.770;11.440;2023-11-22T03:07:58;2.70;;;1.97;;
78072;SDS011;67281;48.770;11.440;2023-11-22T03:10:25;3.17;;;2.20;;
78072;SDS011;67281;48.770;11.440;2023-11-22T03:12:52;2.87;;;2.00;;
78072;SDS011;67281;48.770;11.440;2023-11-22T03:15:20;2.97;;;2.27;;
78072;SDS011;67281;48.770;11.440;2023-11-22T03:17:47;3.03;;;1.90;;
78072;SDS011;67281;48.770;11.440;2023-11-22T03:20:15;2.37;;;2.13;;
78072;SDS011;67281;48.770;11.440;2023-11-22T03:22:43;2.70;;;1.80;;
78072;SDS011;67281;48.770;11.440;2023-11-22T03:25:11;2.40;;;1.90;;
78072;SDS011;67281;48.770;11.440;2023-11-22T03:27:38;2.90;;;2.07;;
78072;SDS011;67281;48.770;11.440;2023-11-22T03:30:05;2.63;;;2.10;;
78072;SDS011;67281;48.770;11.440;2023-11-22T03:32:38;3.23;;;2.30;;
78072;SDS011;67281;48.770;11.440;2023-11-22T03:35:06;2.93;;;2.10;;
78072;SDS011;67281;48.770;11.440;2023-11-22T03:37:34;2.10;;;1.87;;
78072;SDS011;67281;48.770;11.440;2023-11-22T03:40:01;2.93;;;2.03;;
78072;SDS011;67281;48.770;11.440;2023-11-22T03:42:29;2.47;;;2.00;;
78072;SDS011;67281;48.770;11.440;2023-11-22T03:44:56;2.83;;;1.87;;
78072;SDS011;67281;48.770;11.440;2023-11-22T03:47:25;2.63;;;2.10;;
78072;SDS011;67281;48.770;11.440;2023-11-22T03:49:52;2.73;;;2.30;;
78072;SDS011;67281;48.770;11.440;2023-11-22T03:52:19;3.37;;;2.20;;
78072;SDS011;67281;48.770;11.440;2023-11-22T03:54:46;3.33;;;2.50;;
78072;SDS011;67281;48.770;11.440;2023-11-22T03:57:13;3.13;;;2.40;;
78072;SDS011;67281;48.770;11.440;2023-11-22T03:59:40;5.23;;;2.40;;
78072;SDS011;67281;48.770;11.440;2023-11-22T04:02:07;3.73;;;2.37;;
78072;SDS011;67281;48.770;11.440;2023-11-22T04:04:34;4.33;;;2.80;;
78072;SDS011;67281;48.770;11.440;2023-11-22T04:07:01;3.93;;;2.80;;
78072;SDS011;67281;48.770;11.440;2023-11-22T04:09:30;4.63;;;3.00;;
78072;SDS011;67281;48.770;11.440;2023-11-22T04:11:58;4.50;;;2.90;;
78072;SDS011;67281;48.770;11.440;2023-11-22T04:14:25;3.67;;;2.80;;
78072;SDS011;67281;48.770;11.440;2023-11-22T04:16:54;3.80;;;2.80;;
78072;SDS011;67281;48.770;11.440;2023-11-22T04:19:21;4.00;;;3.03;;
78072;SDS011;67281;48.770;11.440;2023-11-22T04:21:48;4.77;;;3.17;;
78072;SDS011;67281;48.770;11.440;2023-11-22T04:24:15;5.53;;;4.30;;
78072;SDS011;67281;48.770;11.440;2023-11-22T04:26:45;6.53;;;4.50;;
78072;SDS011;67281;48.770;11.440;2023-11-22T04:29:14;5.93;;;4.67;;
78072;SDS011;67281;48.770;11.440;2023-11-22T04:31:43;7.63;;;5.10;;
78072;SDS011;67281;48.770;11.440;2023-11-22T04:34:10;6.90;;;4.90;;
78072;SDS011;67281;48.770;11.440;2023-11-22T04:36:37;8.43;;;5.13;;
78072;SDS011;67281;48.770;11.440;2023-11-22T04:39:05;7.23;;;5.47;;
78072;SDS011;67281;48.770;11.440;2023-11-22T04:41:33;6.70;;;5.40;;
78072;SDS011;67281;48.770;11.440;2023-11-22T04:44:01;6.60;;;4.70;;
78072;SDS011;67281;48.770;11.440;2023-11-22T04:46:28;6.60;;;5.13;;
78072;SDS011;67281;48.770;11.440;2023-11-22T04:48:55;6.47;;;4.80;;
78072;SDS011;67281;48.770;11.440;2023-11-22T04:51:24;6.20;;;4.30;;
78072;SDS011;67281;48.770;11.440;2023-11-22T04:53:51;6.53;;;4.70;;
78072;SDS011;67281;48.770;11.440;2023-11-22T04:56:18;7.67;;;5.40;;
78072;SDS011;67281;48.770;11.440;2023-11-22T04:58:45;7.03;;;4.93;;
78072;SDS011;67281;48.770;11.440;2023-11-22T05:01:12;8.20;;;4.60;;
78072;SDS011;67281;48.770;11.440;2023-11-22T05:03:42;6.50;;;4.97;;
78072;SDS011;67281;48.770;11.440;2023-11-22T05:06:09;6.77;;;4.60;;
78072;SDS011;67281;48.770;11.440;2023-11-22T05:08:36;6.50;;;4.50;;
78072;SDS011;67281;48.770;11.440;2023-11-22T05:11:06;7.97;;;5.00;;
78072;SDS011;67281;48.770;11.440;2023-11-22T05:13:37;6.53;;;4.67;;
78072;SDS011;67281;48.770;11.440;2023-11-22T05:16:04;6.13;;;4.47;;
78072;SDS011;67281;48.770;11.440;2023-11-22T05:18:34;6.03;;;4.33;;
78072;SDS011;67281;48.770;11.440;2023-11-22T05:21:02;7.27;;;4.53;;
78072;SDS011;67281;48.770;11.440;2023-11-22T05:23:32;6.53;;;4.00;;
78072;SDS011;67281;48.770;11.440;2023-11-22T05:26:00;6.23;;;4.50;;
78072;SDS011;67281;48.770;11.440;2023-11-22T05:28:30;5.57;;;3.83;;
78072;SDS011;67281;48.770;11.440;2023-11-22T05:30:58;5.70;;;3.97;;
78072;SDS011;67281;48.770;11.440;2023-11-22T05:33:27;5.47;;;3.60;;
78072;SDS011;67281;48.770;11.440;2023-11-22T05:35:54;6.13;;;3.73;;
78072;SDS011;67281;48.770;11.440;2023-11-22T05:38:21;5.60;;;3.83;;
78072;SDS011;67281;48.770;11.440;2023-11-22T05:40:51;5.83;;;3.90;;
78072;SDS011;67281;48.770;11.440;2023-11-22T05:43:18;6.83;;;4.30;;
78072;SDS011;67281;48.770;11.440;2023-11-22T05:45:52;7.17;;;4.30;;
78072;SDS011;67281;48.770;11.440;2023-11-22T05:48:19;6.07;;;4.20;;
78072;SDS011;67281;48.770;11.440;2023-11-22T05:50:47;5.17;;;3.60;;
78072;SDS011;67281;48.770;11.440;2023-11-22T05:53:14;5.60;;;3.80;;
78072;SDS011;67281;48.770;11.440;2023-11-22T05:55:48;7.40;;;3.97;;
78072;SDS011;67281;48.770;11.440;2023-11-22T05:58:16;5.13;;;3.40;;
78072;SDS011;67281;48.770;11.440;2023-11-22T06:00:44;5.60;;;3.80;;
78072;SDS011;67281;48.770;11.440;2023-11-22T06:03:11;5.90;;;3.47;;
78072;SDS011;67281;48.770;11.440;2023-11-22T06:05:40;4.30;;;3.40;;
78072;SDS011;67281;48.770;11.440;2023-11-22T06:08:10;4.97;;;3.63;;
78072;SDS011;67281;48.770;11.440;2023-11-22T06:10:37;5.97;;;3.30;;
78072;SDS011;67281;48.770;11.440;2023-11-22T06:13:08;5.63;;;3.90;;
78072;SDS011;67281;48.770;11.440;2023-11-22T06:15:35;5.43;;;3.67;;
78072;SDS011;67281;48.770;11.440;2023-11-22T06:18:02;7.20;;;3.93;;
78072;SDS011;67281;48.770;11.440;2023-11-22T06:20:29;5.10;;;3.70;;
78072;SDS011;67281;48.770;11.440;2023-11-22T06:22:57;5.60;;;3.93;;
78072;SDS011;67281;48.770;11.440;2023-11-22T06:25:28;6.40;;;4.43;;
78072;SDS011;67281;48.770;11.440;2023-11-22T06:27:54;7.00;;;4.93;;
78072;SDS011;67281;48.770;11.440;2023-11-22T06:30:24;6.30;;;4.40;;
78072;SDS011;67281;48.770;11.440;2023-11-22T06:32:51;6.60;;;4.60;;
78072;SDS011;67281;48.770;11.440;2023-11-22T06:35:18;6.90;;;4.63;;
78072;SDS011;67281;48.770;11.440;2023-11-22T06:37:45;6.13;;;4.40;;
78072;SDS011;67281;48.770;11.440;2023-11-22T06:40:12;5.43;;;3.90;;
78072;SDS011;67281;48.770;11.440;2023-11-22T06:42:42;6.00;;;4.03;;
78072;SDS011;67281;48.770;11.440;2023-11-22T06:45:10;5.27;;;4.00;;
78072;SDS011;67281;48.770;11.440;2023-11-22T06:47:37;5.60;;;3.70;;
78072;SDS011;67281;48.770;11.440;2023-11-22T06:50:04;4.80;;;3.37;;
78072;SDS011;67281;48.770;11.440;2023-11-22T06:52:36;4.97;;;3.17;;
78072;SDS011;67281;48.770;11.440;2023-11-22T06:55:05;5.10;;;2.97;;
78072;SDS011;67281;48.770;11.440;2023-11-22T06:57:34;4.40;;;3.03;;
78072;SDS011;67281;48.770;11.440;2023-11-22T07:00:02;5.50;;;3.23;;
78072;SDS011;67281;48.770;11.440;2023-11-22T07:02:36;5.70;;;2.90;;
78072;SDS011;67281;48.770;11.440;2023-11-22T07:05:03;4.33;;;3.27;;
78072;SDS011;67281;48.770;11.440;2023-11-22T07:07:37;4.43;;;3.00;;
78072;SDS011;67281;48.770;11.440;2023-11-22T07:10:04;4.43;;;2.70;;
78072;SDS011;67281;48.770;11.440;2023-11-22T07:12:32;5.63;;;3.10;;
78072;SDS011;67281;48.770;11.440;2023-11-22T07:15:01;4.40;;;2.60;;
78072;SDS011;67281;48.770;11.440;2023-11-22T07:17:29;3.80;;;2.70;;
78072;SDS011;67281;48.770;11.440;2023-11-22T07:19:56;3.93;;;3.10;;
78072;SDS011;67281;48.770;11.440;2023-11-22T07:22:23;4.67;;;3.23;;
78072;SDS011;67281;48.770;11.440;2023-11-22T07:24:50;5.87;;;3.00;;
78072;SDS011;67281;48.770;11.440;2023-11-22T07:27:28;4.43;;;3.13;;
78072;SDS011;67281;48.770;11.440;2023-11-22T07:29:55;5.17;;;2.90;;
78072;SDS011;67281;48.770;11.440;2023-11-22T07:32:22;5.83;;;3.20;;
78072;SDS011;67281;48.770;11.440;2023-11-22T07:34:49;4.70;;;3.50;;
78072;SDS011;67281;48.770;11.440;2023-11-22T07:37:16;4.17;;;2.73;;
78072;SDS011;67281;48.770;11.440;2023-11-22T07:39:44;4.90;;;3.33;;
78072;SDS011;67281;48.770;11.440;2023-11-22T07:42:11;5.23;;;3.50;;
78072;SDS011;67281;48.770;11.440;2023-11-22T07:44:39;5.77;;;3.90;;
78072;SDS011;67281;48.770;11.440;2023-11-22T07:47:06;4.80;;;3.50;;
78072;SDS011;67281;48.770;11.440;2023-11-22T07:49:38;5.93;;;3.97;;
78072;SDS011;67281;48.770;11.440;2023-11-22T07:52:05;5.13;;;3.70;;
78072;SDS011;67281;48.770;11.440;2023-11-22T07:54:33;5.37;;;3.30;;
78072;SDS011;67281;48.770;11.440;2023-11-22T07:57:02;6.27;;;3.63;;
78072;SDS011;67281;48.770;11.440;2023-11-22T07:59:29;5.07;;;3.80;;
78072;SDS011;67281;48.770;11.440;2023-11-22T08:01:56;6.53;;;3.50;;
78072;SDS011;67281;48.770;11.440;2023-11-22T08:04:24;5.30;;;3.60;;
78072;SDS011;67281;48.770;11.440;2023-11-22T08:06:51;5.17;;;3.87;;
78072;SDS011;67281;48.770;11.440;2023-11-22T08:09:23;5.80;;;3.67;;
78072;SDS011;67281;48.770;11.440;2023-11-22T08:11:50;6.33;;;3.97;;
78072;SDS011;67281;48.770;11.440;2023-11-22T08:14:20;5.70;;;4.30;;
78072;SDS011;67281;48.770;11.440;2023-11-22T08:16:50;7.43;;;6.00;;
78072;SDS011;67281;48.770;11.440;2023-11-22T08:19:16;9.80;;;7.67;;
78072;SDS011;67281;48.770;11.440;2023-11-22T08:21:43;6.10;;;4.57;;
78072;SDS011;67281;48.770;11.440;2023-11-22T08:24:10;6.60;;;4.70;;
78072;SDS011;67281;48.770;11.440;2023-11-22T08:26:39;9.27;;;4.43;;
78072;SDS011;67281;48.770;11.440;2023-11-22T08:29:07;7.13;;;4.80;;
78072;SDS011;67281;48.770;11.440;2023-11-22T08:31:34;5.53;;;3.80;;
78072;SDS011;67281;48.770;11.440;2023-11-22T08:34:03;6.70;;;5.13;;
78072;SDS011;67281;48.770;11.440;2023-11-22T08:36:34;6.07;;;4.60;;
78072;SDS011;67281;48.770;11.440;2023-11-22T08:39:01;9.23;;;5.07;;
78072;SDS011;67281;48.770;11.440;2023-11-22T08:41:30;8.03;;;5.17;;
78072;SDS011;67281;48.770;11.440;2023-11-22T08:43:58;9.03;;;5.83;;
78072;SDS011;67281;48.770;11.440;2023-11-22T08:46:26;7.17;;;4.97;;
78072;SDS011;67281;48.770;11.440;2023-11-22T08:48:54;9.27;;;5.37;;
78072;SDS011;67281;48.770;11.440;2023-11-22T08:51:23;8.13;;;5.47;;
78072;SDS011;67281;48.770;11.440;2023-11-22T08:53:50;8.03;;;5.90;;
78072;SDS011;67281;48.770;11.440;2023-11-22T08:56:17;7.93;;;5.90;;
78072;SDS011;67281;48.770;11.440;2023-11-22T08:58:44;8.07;;;5.50;;
78072;SDS011;67281;48.770;11.440;2023-11-22T09:01:11;9.43;;;6.10;;
78072;SDS011;67281;48.770;11.440;2023-11-22T09:03:41;7.70;;;5.23;;
78072;SDS011;67281;48.770;11.440;2023-11-22T09:06:10;9.20;;;5.80;;
78072;SDS011;67281;48.770;11.440;2023-11-22T09:08:37;8.30;;;5.40;;
78072;SDS011;67281;48.770;11.440;2023-11-22T09:11:05;8.80;;;6.13;;
78072;SDS011;67281;48.770;11.440;2023-11-22T09:13:33;6.90;;;5.20;;
78072;SDS011;67281;48.770;11.440;2023-11-22T09:16:01;8.40;;;5.37;;
78072;SDS011;67281;48.770;11.440;2023-11-22T09:18:32;7.60;;;5.33;;
78072;SDS011;67281;48.770;11.440;2023-11-22T09:20:59;7.83;;;5.63;;
78072;SDS011;67281;48.770;11.440;2023-11-22T09:23:26;7.13;;;5.03;;
78072;SDS011;67281;48.770;11.440;2023-11-22T09:25:54;7.70;;;4.90;;
78072;SDS011;67281;48.770;11.440;2023-11-22T09:28:21;6.73;;;4.67;;
78072;SDS011;67281;48.770;11.440;2023-11-22T09:30:48;7.13;;;4.97;;
78072;SDS011;67281;48.770;11.440;2023-11-22T09:33:16;8.47;;;5.00;;
78072;SDS011;67281;48.770;11.440;2023-11-22T09:35:44;6.77;;;4.57;;
78072;SDS011;67281;48.770;11.440;2023-11-22T09:38:14;9.20;;;4.83;;
78072;SDS011;67281;48.770;11.440;2023-11-22T09:40:43;7.13;;;4.83;;
78072;SDS011;67281;48.770;11.440;2023-11-22T09:43:16;7.47;;;4.97;;
78072;SDS011;67281;48.770;11.440;2023-11-22T09:45:48;7.80;;;5.30;;
78072;SDS011;67281;48.770;11.440;2023-11-22T09:48:22;7.63;;;4.70;;
78072;SDS011;67281;48.770;11.440;2023-11-22T09:51:02;5.87;;;4.00;;
78072;SDS011;67281;48.770;11.440;2023-11-22T09:53:34;5.67;;;4.30;;
78072;SDS011;67281;48.770;11.440;2023-11-22T09:56:07;6.70;;;4.23;;
78072;SDS011;67281;48.770;11.440;2023-11-22T09:58:39;6.40;;;4.63;;
78072;SDS011;67281;48.770;11.440;2023-11-22T10:01:07;5.90;;;3.87;;
78072;SDS011;67281;48.770;11.440;2023-11-22T10:03:35;6.47;;;4.03;;
78072;SDS011;67281;48.770;11.440;2023-11-22T10:06:03;6.27;;;4.17;;
78072;SDS011;67281;48.770;11.440;2023-11-22T10:08:31;6.27;;;4.37;;
78072;SDS011;67281;48.770;11.440;2023-11-22T10:10:59;6.40;;;3.97;;
78072;SDS011;67281;48.770;11.440;2023-11-22T10:13:26;6.40;;;4.23;;
78072;SDS011;67281;48.770;11.440;2023-11-22T10:15:53;6.00;;;4.00;;
78072;SDS011;67281;48.770;11.440;2023-11-22T10:18:20;5.77;;;4.20;;
78072;SDS011;67281;48.770;11.440;2023-11-22T10:20:51;5.40;;;3.77;;
78072;SDS011;67281;48.770;11.440;2023-11-22T10:23:19;5.60;;;3.90;;
78072;SDS011;67281;48.770;11.440;2023-11-22T10:25:54;5.90;;;3.43;;
78072;SDS011;67281;48.770;11.440;2023-11-22T10:28:22;5.90;;;3.80;;
78072;SDS011;67281;48.770;11.440;2023-11-22T10:30:52;5.00;;;3.57;;
78072;SDS011;67281;48.770;11.440;2023-11-22T10:33:19;5.43;;;3.60;;
78072;SDS011;67281;48.770;11.440;2023-11-22T10:35:50;6.80;;;4.20;;
78072;SDS011;67281;48.770;11.440;2023-11-22T10:38:19;5.73;;;4.07;;
78072;SDS011;67281;48.770;11.440;2023-11-22T10:40:47;5.40;;;3.80;;
78072;SDS011;67281;48.770;11.440;2023-11-22T10:43:16;5.47;;;4.00;;
78072;SDS011;67281;48.770;11.440;2023-11-22T10:45:43;6.33;;;3.70;;
78072;SDS011;67281;48.770;11.440;2023-11-22T10:48:25;5.90;;;4.37;;
78072;SDS011;67281;48.770;11.440;2023-11-22T10:50:56;8.93;;;4.20;;
78072;SDS011;67281;48.770;11.440;2023-11-22T10:53:30;4.53;;;3.40;;
78072;SDS011;67281;48.770;11.440;2023-11-22T10:56:04;7.87;;;4.47;;
78072;SDS011;67281;48.770;11.440;2023-11-22T10:58:41;6.53;;;4.30;;
78072;SDS011;67281;48.770;11.440;2023-11-22T11:01:14;6.53;;;3.70;;
78072;SDS011;67281;48.770;11.440;2023-11-22T11:03:45;6.97;;;4.00;;
78072;SDS011;67281;48.770;11.440;2023-11-22T11:06:19;5.87;;;4.20;;
78072;SDS011;67281;48.770;11.440;2023-11-22T11:08:57;6.60;;;4.60;;
78072;SDS011;67281;48.770;11.440;2023-11-22T11:11:29;6.70;;;3.90;;
78072;SDS011;67281;48.770;11.440;2023-11-22T11:13:59;5.30;;;3.50;;
78072;SDS011;67281;48.770;11.440;2023-11-22T11:16:27;5.70;;;3.83;;
78072;SDS011;67281;48.770;11.440;2023-11-22T11:18:54;7.57;;;4.47;;
78072;SDS011;67281;48.770;11.440;2023-11-22T11:21:22;6.83;;;4.67;;
78072;SDS011;67281;48.770;11.440;2023-11-22T11:23:50;6.83;;;4.40;;
78072;SDS011;67281;48.770;11.440;2023-11-22T11:26:24;7.07;;;4.83;;
78072;SDS011;67281;48.770;11.440;2023-11-22T11:28:52;7.23;;;4.40;;
78072;SDS011;67281;48.770;11.440;2023-11-22T11:31:20;6.30;;;4.50;;
78072;SDS011;67281;48.770;11.440;2023-11-22T11:38:50;6.47;;;4.47;;
78072;SDS011;67281;48.770;11.440;2023-11-22T11:41:18;8.57;;;4.73;;
78072;SDS011;67281;48.770;11.440;2023-11-22T11:43:46;6.87;;;4.57;;
78072;SDS011;67281;48.770;11.440;2023-11-22T11:46:15;6.90;;;4.53;;
78072;SDS011;67281;48.770;11.440;2023-11-22T11:48:43;6.97;;;4.57;;
78072;SDS011;67281;48.770;11.440;2023-11-22T11:51:14;8.40;;;4.87;;
78072;SDS011;67281;48.770;11.440;2023-11-22T11:53:42;6.83;;;4.60;;
78072;SDS011;67281;48.770;11.440;2023-11-22T11:56:09;7.13;;;4.87;;
78072;SDS011;67281;48.770;11.440;2023-11-22T11:58:37;7.80;;;4.60;;
78072;SDS011;67281;48.770;11.440;2023-11-22T12:01:04;6.53;;;4.50;;
78072;SDS011;67281;48.770;11.440;2023-11-22T12:03:33;6.63;;;4.63;;
78072;SDS011;67281;48.770;11.440;2023-11-22T12:06:02;6.97;;;4.33;;
78072;SDS011;67281;48.770;11.440;2023-11-22T12:08:30;7.90;;;5.00;;
78072;SDS011;67281;48.770;11.440;2023-11-22T12:11:03;7.70;;;4.73;;
78072;SDS011;67281;48.770;11.440;2023-11-22T12:13:34;8.57;;;5.30;;
78072;SDS011;67281;48.770;11.440;2023-11-22T12:16:07;8.20;;;5.43;;
78072;SDS011;67281;48.770;11.440;2023-11-22T12:18:45;7.97;;;5.20;;
78072;SDS011;67281;48.770;11.440;2023-11-22T12:21:17;7.20;;;5.17;;
78072;SDS011;67281;48.770;11.440;2023-11-22T12:23:46;7.60;;;5.00;;
78072;SDS011;67281;48.770;11.440;2023-11-22T12:26:15;7.53;;;4.90;;
78072;SDS011;67281;48.770;11.440;2023-11-22T12:28:48;8.10;;;5.27;;
78072;SDS011;67281;48.770;11.440;2023-11-22T12:31:29;6.87;;;5.13;;
78072;SDS011;67281;48.770;11.440;2023-11-22T12:34:03;8.67;;;6.13;;
78072;SDS011;67281;48.770;11.440;2023-11-22T12:36:33;7.77;;;5.00;;
78072;SDS011;67281;48.770;11.440;2023-11-22T12:39:02;9.33;;;5.30;;
78072;SDS011;67281;48.770;11.440;2023-11-22T12:41:31;7.20;;;4.97;;
78072;SDS011;67281;48.770;11.440;2023-11-22T12:44:03;7.97;;;5.30;;
78072;SDS011;67281;48.770;11.440;2023-11-22T12:46:51;7.53;;;5.23;;
78072;SDS011;67281;48.770;11.440;2023-11-22T12:49:26;8.60;;;5.73;;
78072;SDS011;67281;48.770;11.440;2023-11-22T12:51:54;7.30;;;5.50;;
78072;SDS011;67281;48.770;11.440;2023-11-22T12:54:24;9.97;;;6.17;;
78072;SDS011;67281;48.770;11.440;2023-11-22T12:56:52;9.13;;;5.87;;
78072;SDS011;67281;48.770;11.440;2023-11-22T12:59:26;7.87;;;5.17;;
78072;SDS011;67281;48.770;11.440;2023-11-22T13:01:54;10.47;;;5.73;;
78072;SDS011;67281;48.770;11.440;2023-11-22T13:04:24;8.20;;;5.50;;
78072;SDS011;67281;48.770;11.440;2023-11-22T13:06:55;7.50;;;5.23;;
78072;SDS011;67281;48.770;11.440;2023-11-22T13:09:22;7.80;;;5.73;;
78072;SDS011;67281;48.770;11.440;2023-11-22T13:11:48;7.90;;;6.10;;
78072;SDS011;67281;48.770;11.440;2023-11-22T13:14:15;8.13;;;5.37;;
78072;SDS011;67281;48.770;11.440;2023-11-22T13:16:43;8.33;;;5.23;;
78072;SDS011;67281;48.770;11.440;2023-11-22T13:19:11;8.40;;;5.17;;
78072;SDS011;67281;48.770;11.440;2023-11-22T13:21:38;7.90;;;5.77;;
78072;SDS011;67281;48.770;11.440;2023-11-22T13:24:07;8.13;;;5.80;;
78072;SDS011;67281;48.770;11.440;2023-11-22T13:26:36;9.50;;;5.90;;
78072;SDS011;67281;48.770;11.440;2023-11-22T13:29:03;9.33;;;5.47;;
78072;SDS011;67281;48.770;11.440;2023-11-22T13:31:30;8.83;;;5.60;;
78072;SDS011;67281;48.770;11.440;2023-11-22T13:33:57;8.43;;;5.80;;
78072;SDS011;67281;48.770;11.440;2023-11-22T13:36:24;8.57;;;5.73;;
78072;SDS011;67281;48.770;11.440;2023-11-22T13:38:51;8.63;;;5.47;;
78072;SDS011;67281;48.770;11.440;2023-11-22T13:41:18;7.83;;;5.40;;
78072;SDS011;67281;48.770;11.440;2023-11-22T13:43:45;7.83;;;5.20;;
78072;SDS011;67281;48.770;11.440;2023-11-22T13:46:14;9.13;;;5.10;;
78072;SDS011;67281;48.770;11.440;2023-11-22T13:48:41;9.00;;;5.80;;
78072;SDS011;67281;48.770;11.440;2023-11-22T13:51:08;8.10;;;5.43;;
78072;SDS011;67281;48.770;11.440;2023-11-22T13:53:37;8.93;;;5.30;;
78072;SDS011;67281;48.770;11.440;2023-11-22T13:56:12;8.70;;;5.60;;
78072;SDS011;67281;48.770;11.440;2023-11-22T13:58:42;7.33;;;5.20;;
78072;SDS011;67281;48.770;11.440;2023-11-22T14:01:09;8.57;;;5.87;;
78072;SDS011;67281;48.770;11.440;2023-11-22T14:03:48;7.70;;;5.70;;
78072;SDS011;67281;48.770;11.440;2023-11-22T14:06:17;8.30;;;5.60;;
78072;SDS011;67281;48.770;11.440;2023-11-22T14:08:44;9.33;;;5.63;;
78072;SDS011;67281;48.770;11.440;2023-11-22T14:11:12;8.20;;;5.13;;
78072;SDS011;67281;48.770;11.440;2023-11-22T14:13:39;8.50;;;5.33;;
78072;SDS011;67281;48.770;11.440;2023-11-22T14:16:07;10.07;;;5.87;;
78072;SDS011;67281;48.770;11.440;2023-11-22T14:18:35;8.43;;;5.37;;
78072;SDS011;67281;48.770;11.440;2023-11-22T14:21:02;8.83;;;5.47;;
78072;SDS011;67281;48.770;11.440;2023-11-22T14:23:31;7.77;;;5.30;;
78072;SDS011;67281;48.770;11.440;2023-11-22T14:25:58;8.07;;;5.70;;
78072;SDS011;67281;48.770;11.440;2023-11-22T14:28:25;10.13;;;6.17;;
78072;SDS011;67281;48.770;11.440;2023-11-22T14:30:52;10.90;;;6.47;;
78072;SDS011;67281;48.770;11.440;2023-11-22T14:33:21;8.53;;;5.80;;
78072;SDS011;67281;48.770;11.440;2023-11-22T14:35:48;10.13;;;6.50;;
78072;SDS011;67281;48.770;11.440;2023-11-22T14:38:17;9.57;;;6.50;;
78072;SDS011;67281;48.770;11.440;2023-11-22T14:40:45;9.00;;;6.57;;
78072;SDS011;67281;48.770;11.440;2023-11-22T14:43:12;13.87;;;7.87;;
78072;SDS011;67281;48.770;11.440;2023-11-22T14:45:43;11.43;;;7.10;;